Time;durP1;ratioP1;P1;durP2;ratioP2;P2;SDS_P1;SDS_P2;PMS_P1;PMS_P2;Temp;Humidity;BMP_temperature;BMP_pressure;BME280_temperature;BME280_humidity;BME280_pressure;Samples;Min_cycle;Max_cycle;Signal;HPM_P1;HPM_P2
2022/07/12 00:00:10;;;;;;;6.63;6.13;;;14.30;99.90;;;;;;5038689;28;20463;-62
2022/07/12 00:02:40;;;;;;;6.17;5.67;;;14.20;99.90;;;;;;5039088;28;20467;-62
2022/07/12 00:05:08;;;;;;;7.17;5.83;;;14.20;99.90;;;;;;5038676;28;20887;-62
2022/07/12 00:07:38;;;;;;;6.80;6.20;;;14.10;99.90;;;;;;5038672;28;20563;-62
2022/07/12 00:10:08;;;;;;;6.33;5.70;;;14.10;99.90;;;;;;5037645;28;20469;-62
2022/07/12 00:12:45;;;;;;;6.80;6.03;;;14.10;99.90;;;;;;5038604;28;20509;-62
2022/07/12 00:15:17;;;;;;;7.20;6.60;;;14.10;99.90;;;;;;5038510;28;20462;-62
2022/07/12 00:17:45;;;;;;;7.80;7.20;;;13.90;99.90;;;;;;5038138;28;20462;-62
2022/07/12 00:20:12;;;;;;;7.57;6.60;;;14.00;1.00;;;;;;5038606;28;20558;-62
2022/07/12 00:22:42;;;;;;;7.43;6.33;;;13.90;1.00;;;;;;5038494;28;20536;-62
2022/07/12 00:25:11;;;;;;;9.33;6.80;;;13.90;1.00;;;;;;5038468;28;20811;-62
2022/07/12 00:27:40;;;;;;;7.23;6.53;;;13.90;1.00;;;;;;5033870;28;20813;-62
2022/07/12 00:30:08;;;;;;;7.83;7.13;;;13.90;99.90;;;;;;5018434;28;20445;-61
2022/07/12 00:32:35;;;;;;;7.20;6.50;;;13.80;1.00;;;;;;5018159;28;20519;-61
2022/07/12 00:35:03;;;;;;;7.07;6.37;;;13.70;99.90;;;;;;5018719;28;20733;-62
2022/07/12 00:37:30;;;;;;;7.40;6.70;;;13.70;99.90;;;;;;5017923;28;20515;-62
2022/07/12 00:40:00;;;;;;;11.20;6.93;;;13.70;1.00;;;;;;5018158;28;20806;-62
2022/07/12 00:42:29;;;;;;;7.20;6.60;;;13.70;1.00;;;;;;5006720;28;20741;-62
2022/07/12 00:44:56;;;;;;;6.17;5.67;;;13.70;1.00;;;;;;5006133;28;20432;-62
2022/07/12 00:47:33;;;;;;;6.80;6.20;;;13.70;1.00;;;;;;5007197;28;20452;-62
2022/07/12 00:50:03;;;;;;;6.57;6.00;;;13.60;1.00;;;;;;4978424;28;20472;-62
2022/07/12 00:52:30;;;;;;;7.33;6.07;;;13.60;1.00;;;;;;4979014;28;20466;-62
2022/07/12 00:54:58;;;;;;;6.43;5.83;;;13.50;1.00;;;;;;4979423;28;20549;-61
2022/07/12 00:57:25;;;;;;;6.40;5.80;;;13.50;99.90;;;;;;4978541;28;21335;-62
2022/07/12 00:59:54;;;;;;;7.37;6.77;;;13.50;14.80;;;;;;4978955;28;20890;-62
2022/07/12 01:02:22;;;;;;;6.80;6.20;;;13.40;99.90;;;;;;4979053;28;20465;-62
2022/07/12 01:04:49;;;;;;;7.50;6.13;;;13.40;99.90;;;;;;4979197;28;20543;-62
2022/07/12 01:07:16;;;;;;;6.57;5.90;;;13.40;99.90;;;;;;4979004;28;20508;-62
2022/07/12 01:09:44;;;;;;;6.90;5.93;;;13.30;99.90;;;;;;4978717;28;20828;-62
2022/07/12 01:12:18;;;;;;;6.63;6.03;;;13.30;1.00;;;;;;4978721;28;20549;-62
2022/07/12 01:14:46;;;;;;;5.93;5.43;;;13.30;1.00;;;;;;4979201;28;20466;-62
2022/07/12 01:17:16;;;;;;;6.50;5.90;;;13.30;99.90;;;;;;4978873;28;20489;-62
2022/07/12 01:19:44;;;;;;;6.90;6.20;;;13.30;99.90;;;;;;4978554;28;20509;-62
2022/07/12 01:22:15;;;;;;;6.27;5.67;;;13.30;99.90;;;;;;4978704;28;20466;-61
2022/07/12 01:24:44;;;;;;;6.53;6.03;;;13.20;1.00;;;;;;4978686;28;20495;-61
2022/07/12 01:27:12;;;;;;;7.00;6.40;;;13.20;99.90;;;;;;4979083;28;20445;-62
2022/07/12 01:29:40;;;;;;;6.00;5.50;;;13.20;99.90;;;;;;4978707;28;20468;-61
2022/07/12 01:34:54;;;;;;;7.07;6.47;;;13.20;99.90;;;;;;4978246;28;20446;-62
2022/07/12 01:37:23;;;;;;;7.60;7.00;;;13.10;1.70;;;;;;4995903;28;20503;-62
2022/07/12 01:39:53;;;;;;;7.77;7.13;;;13.20;32.30;;;;;;4997578;28;20824;-62
2022/07/12 01:42:21;;;;;;;6.47;5.87;;;13.10;1.00;;;;;;5012393;28;20491;-62
2022/07/12 01:44:52;;;;;;;7.20;6.50;;;13.10;1.00;;;;;;5037560;28;20969;-62
2022/07/12 01:47:20;;;;;;;6.80;5.90;;;13.00;1.00;;;;;;5031804;28;20736;-62
2022/07/12 01:49:48;;;;;;;9.00;7.07;;;13.00;99.90;;;;;;5017270;28;20438;-62
2022/07/12 01:52:20;;;;;;;7.53;6.10;;;13.00;99.90;;;;;;5017162;28;20464;-62
2022/07/12 01:54:48;;;;;;;8.77;7.97;;;13.00;1.00;;;;;;5017615;28;20511;-62
2022/07/12 01:57:17;;;;;;;8.37;7.57;;;13.00;1.00;;;;;;5017401;28;20969;-62
2022/07/12 01:59:44;;;;;;;6.37;5.77;;;13.00;1.00;;;;;;5017210;28;20562;-62
2022/07/12 02:02:12;;;;;;;6.53;6.03;;;12.90;99.90;;;;;;5017304;28;20592;-62
2022/07/12 02:04:39;;;;;;;7.10;6.40;;;12.90;99.90;;;;;;5017443;28;20472;-62
2022/07/12 02:07:07;;;;;;;6.87;6.27;;;12.80;99.90;;;;;;5016981;28;20463;-62
2022/07/12 02:09:39;;;;;;;7.07;6.03;;;12.70;99.90;;;;;;5016505;28;20889;-62
2022/07/12 02:12:07;;;;;;;6.77;6.27;;;12.70;1.00;;;;;;5017447;28;20947;-62
2022/07/12 02:14:42;;;;;;;6.83;6.13;;;12.70;99.90;;;;;;5017196;28;20500;-62
2022/07/12 02:17:10;;;;;;;6.77;6.17;;;12.70;99.90;;;;;;5017185;28;20494;-62
2022/07/12 02:19:37;;;;;;;7.60;7.00;;;12.70;62.60;;;;;;5017216;28;20460;-62
2022/07/12 02:22:04;;;;;;;7.03;6.40;;;12.70;93.40;;;;;;5017188;28;20474;-62
2022/07/12 02:24:32;;;;;;;6.80;6.20;;;12.70;67.80;;;;;;5016929;28;20502;-62
2022/07/12 02:27:02;;;;;;;7.77;6.97;;;12.60;99.90;;;;;;5017131;28;20563;-62
2022/07/12 02:29:29;;;;;;;6.80;6.20;;;12.60;99.90;;;;;;5016984;28;20880;-62
2022/07/12 02:31:58;;;;;;;7.20;6.03;;;12.60;99.90;;;;;;5016581;28;20468;-62
2022/07/12 02:34:26;;;;;;;7.30;6.70;;;12.50;99.90;;;;;;5019474;28;20585;-62
2022/07/12 02:36:54;;;;;;;6.90;6.20;;;12.40;1.00;;;;;;5020316;28;20506;-62
2022/07/12 02:39:21;;;;;;;6.40;5.80;;;12.40;1.00;;;;;;5021190;28;20471;-62
2022/07/12 02:41:48;;;;;;;7.23;6.50;;;12.40;1.00;;;;;;5022172;28;20426;-62
2022/07/12 02:44:16;;;;;;;6.03;5.53;;;12.40;1.00;;;;;;5040219;28;20766;-62
2022/07/12 02:46:43;;;;;;;8.53;7.63;;;12.40;1.00;;;;;;5039753;28;20465;-62
2022/07/12 02:49:12;;;;;;;8.00;7.30;;;12.40;1.00;;;;;;5040044;28;20881;-62
2022/07/12 02:51:39;;;;;;;7.50;6.87;;;12.40;1.00;;;;;;5040166;28;20889;-62
2022/07/12 02:54:06;;;;;;;7.87;7.17;;;12.40;62.70;;;;;;5040319;28;20561;-62
2022/07/12 02:56:34;;;;;;;7.90;7.20;;;12.40;99.90;;;;;;5040208;28;20491;-62
2022/07/12 02:59:02;;;;;;;7.80;7.10;;;12.30;1.00;;;;;;5040548;28;20562;-63
2022/07/12 03:01:29;;;;;;;7.67;6.97;;;12.30;1.00;;;;;;5039835;28;20467;-62
2022/07/12 03:04:02;;;;;;;6.90;6.30;;;12.30;1.00;;;;;;5039683;28;20498;-62
2022/07/12 03:06:31;;;;;;;7.33;6.73;;;12.30;99.90;;;;;;5038582;28;20751;-62
2022/07/12 03:08:58;;;;;;;7.67;7.00;;;12.30;18.20;;;;;;5038538;28;20520;-62
2022/07/12 03:11:27;;;;;;;7.57;6.80;;;12.30;1.00;;;;;;5039293;28;20537;-62
2022/07/12 03:13:55;;;;;;;6.83;6.20;;;12.30;99.90;;;;;;5039645;28;20565;-62
2022/07/12 03:16:22;;;;;;;7.60;6.90;;;12.20;1.00;;;;;;5039645;28;20774;-62
2022/07/12 03:18:50;;;;;;;7.47;6.73;;;12.20;1.00;;;;;;5039982;28;20855;-62
2022/07/12 03:21:18;;;;;;;7.07;6.37;;;12.20;1.00;;;;;;5040240;28;20961;-62
2022/07/12 03:23:49;;;;;;;6.87;6.27;;;12.20;99.90;;;;;;5039607;28;20562;-62
2022/07/12 03:26:16;;;;;;;6.77;6.17;;;12.20;29.30;;;;;;5039721;28;20517;-63
2022/07/12 03:28:44;;;;;;;7.30;6.70;;;12.10;99.90;;;;;;5039379;28;20951;-62
2022/07/12 03:31:13;;;;;;;7.00;6.40;;;12.10;99.90;;;;;;5039986;28;20450;-62
2022/07/12 03:33:41;;;;;;;8.70;7.90;;;12.10;99.90;;;;;;5039252;28;20467;-62
2022/07/12 03:36:09;;;;;;;6.90;6.30;;;12.10;1.00;;;;;;5039003;28;20491;-62
2022/07/12 03:38:39;;;;;;;7.63;6.77;;;12.00;1.00;;;;;;5039425;28;20495;-62
2022/07/12 03:41:15;;;;;;;7.40;6.80;;;12.00;1.00;;;;;;5039720;28;20761;-62
2022/07/12 03:43:44;;;;;;;7.67;6.87;;;12.00;1.00;;;;;;5038936;28;20466;-63
2022/07/12 03:46:12;;;;;;;6.87;6.17;;;12.00;99.90;;;;;;5038111;28;20794;-63
2022/07/12 03:48:39;;;;;;;8.60;6.30;;;12.00;99.90;;;;;;5022173;28;20472;-63
2022/07/12 03:51:06;;;;;;;6.90;6.10;;;12.00;99.90;;;;;;5017770;28;20470;-62
2022/07/12 03:53:33;;;;;;;11.40;6.40;;;12.00;1.00;;;;;;5017819;28;20830;-62
2022/07/12 03:56:04;;;;;;;8.17;6.80;;;12.00;99.90;;;;;;5018125;28;20759;-62
2022/07/12 03:58:32;;;;;;;6.20;5.70;;;12.00;99.90;;;;;;5018842;28;20488;-62
2022/07/12 04:00:59;;;;;;;6.83;6.03;;;12.00;99.90;;;;;;5018870;28;20555;-61
2022/07/12 04:03:29;;;;;;;7.00;6.30;;;12.00;99.90;;;;;;5018773;28;20832;-62
2022/07/12 04:06:00;;;;;;;6.83;6.17;;;12.00;1.00;;;;;;5018262;28;20443;-62
2022/07/12 04:08:29;;;;;;;6.83;6.23;;;12.10;1.00;;;;;;5017421;28;20511;-61
2022/07/12 04:10:57;;;;;;;6.13;5.63;;;12.00;99.90;;;;;;5017658;28;20464;-62
2022/07/12 04:13:24;;;;;;;5.50;5.00;;;12.10;99.90;;;;;;5017545;28;20842;-61
2022/07/12 04:15:53;;;;;;;6.60;6.10;;;12.10;1.00;;;;;;5017200;28;20547;-61
2022/07/12 04:18:20;;;;;;;6.80;6.20;;;12.20;1.00;;;;;;5017005;28;20890;-62
2022/07/12 04:20:49;;;;;;;7.73;7.03;;;12.20;99.90;;;;;;5019054;28;20563;-62
2022/07/12 04:23:16;;;;;;;7.60;6.90;;;12.30;99.90;;;;;;5018829;28;20876;-61
2022/07/12 04:25:44;;;;;;;7.27;5.53;;;12.30;64.80;;;;;;5018377;28;20468;-62
2022/07/12 04:28:11;;;;;;;6.90;6.30;;;12.30;1.00;;;;;;5018671;28;20543;-61
2022/07/12 04:30:38;;;;;;;7.27;6.57;;;12.40;1.00;;;;;;5018829;28;20915;-61
2022/07/12 04:33:10;;;;;;;7.67;6.97;;;12.40;1.00;;;;;;5019036;28;20506;-62
2022/07/12 04:35:38;;;;;;;9.57;7.17;;;12.40;1.00;;;;;;5014221;28;20495;-61
2022/07/12 04:38:05;;;;;;;9.73;6.93;;;12.40;1.00;;;;;;4998815;28;20503;-62
2022/07/12 04:40:32;;;;;;;7.63;6.83;;;12.50;53.60;;;;;;4997711;28;20555;-62
2022/07/12 04:43:02;;;;;;;8.20;7.17;;;12.40;99.90;;;;;;4998634;28;20559;-62
2022/07/12 04:45:29;;;;;;;8.37;7.57;;;12.50;99.90;;;;;;4998322;28;20448;-62
2022/07/12 04:47:57;;;;;;;7.90;7.23;;;12.60;99.90;;;;;;4998142;28;20544;-62
2022/07/12 04:50:28;;;;;;;8.10;7.40;;;12.60;66.00;;;;;;4998509;28;20465;-62
2022/07/12 04:52:55;;;;;;;9.77;8.90;;;12.70;1.00;;;;;;4998856;28;20471;-62
2022/07/12 04:55:22;;;;;;;12.20;11.00;;;12.70;1.00;;;;;;4996437;28;20647;-62
2022/07/12 04:57:49;;;;;;;12.57;11.30;;;12.80;5.20;;;;;;4989093;28;20767;-62
2022/07/12 05:00:17;;;;;;;13.43;12.23;;;13.00;99.90;;;;;;4978695;28;20466;-62
2022/07/12 05:02:44;;;;;;;12.83;11.53;;;13.00;99.90;;;;;;4992247;28;20468;-62
2022/07/12 05:05:15;;;;;;;10.17;9.27;;;13.20;1.00;;;;;;4998784;28;20559;-62
2022/07/12 05:07:44;;;;;;;10.60;9.60;;;13.30;99.90;;;;;;4998310;28;20468;-62
2022/07/12 05:10:11;;;;;;;9.80;8.90;;;13.50;1.00;;;;;;4998085;28;20882;-62
2022/07/12 05:12:39;;;;;;;11.27;9.97;;;13.70;99.90;;;;;;4998506;28;20496;-62
2022/07/12 05:15:07;;;;;;;10.87;9.77;;;13.70;1.00;;;;;;5018198;28;20500;-62
2022/07/12 05:17:35;;;;;;;10.50;9.57;;;13.80;1.00;;;;;;5016747;28;20502;-61
2022/07/12 05:20:04;;;;;;;9.50;8.50;;;13.90;1.00;;;;;;5017637;28;20746;-60
2022/07/12 05:22:31;;;;;;;10.70;9.43;;;13.90;99.90;;;;;;5017250;28;20559;-62
2022/07/12 05:25:00;;;;;;;9.03;8.13;;;14.00;99.90;;;;;;5017591;28;20470;-62
2022/07/12 05:27:27;;;;;;;10.13;9.10;;;14.10;1.00;;;;;;5016881;28;20551;-62
2022/07/12 05:29:54;;;;;;;12.80;8.67;;;14.10;43.20;;;;;;5017087;28;20468;-62
2022/07/12 05:32:24;;;;;;;9.43;8.60;;;14.20;1.00;;;;;;5017546;28;20510;-62
2022/07/12 05:34:51;;;;;;;11.10;10.00;;;14.30;59.20;;;;;;5017706;28;20468;-62
2022/07/12 05:37:18;;;;;;;10.57;9.53;;;14.40;99.90;;;;;;5016400;28;20505;-62
2022/07/12 05:39:47;;;;;;;12.63;11.43;;;14.50;99.90;;;;;;5008479;28;20543;-62
2022/07/12 05:42:16;;;;;;;11.67;10.47;;;14.70;1.00;;;;;;5032632;28;20555;-60
2022/07/12 05:44:43;;;;;;;12.23;11.03;;;14.90;99.90;;;;;;5017474;28;20468;-62
2022/07/12 05:47:12;;;;;;;11.83;10.63;;;14.90;1.00;;;;;;5016647;28;20470;-62
2022/07/12 05:49:44;;;;;;;11.03;9.93;;;15.10;99.90;;;;;;5017122;28;20904;-63
2022/07/12 05:54:58;;;;;;;10.93;9.70;;;15.60;1.00;;;;;;5015450;28;20743;-63
2022/07/12 05:57:27;;;;;;;11.73;9.87;;;16.00;99.90;;;;;;5004461;28;20496;-63
2022/07/12 05:59:54;;;;;;;10.80;9.70;;;16.20;99.90;;;;;;5015286;28;20518;-62
2022/07/12 06:02:21;;;;;;;11.77;10.53;;;16.50;99.90;;;;;;5012408;28;20477;-62
2022/07/12 06:04:49;;;;;;;11.47;10.30;;;16.70;99.90;;;;;;5003020;28;20455;-62
2022/07/12 06:07:16;;;;;;;9.93;8.93;;;17.10;36.10;;;;;;5017318;28;20900;-62
2022/07/12 06:09:46;;;;;;;10.80;9.70;;;17.30;1.00;;;;;;5023063;28;20463;-63
2022/07/12 06:12:14;;;;;;;10.43;8.07;;;17.60;1.00;;;;;;5020906;28;20448;-62
2022/07/12 06:14:47;;;;;;;12.90;9.63;;;17.80;1.00;;;;;;5021698;28;20542;-63
2022/07/12 06:17:15;;;;;;;11.23;10.03;;;18.20;1.00;;;;;;5021543;28;20446;-63
2022/07/12 06:19:42;;;;;;;12.53;10.93;;;18.50;1.00;;;;;;5020559;28;20474;-63
2022/07/12 06:22:13;;;;;;;11.17;9.37;;;18.90;1.00;;;;;;5020674;28;20554;-62
2022/07/12 06:24:40;;;;;;;10.50;9.50;;;19.20;1.00;;;;;;5020912;28;20569;-63
2022/07/12 06:27:09;;;;;;;9.87;8.87;;;19.20;1.00;;;;;;5019038;28;20459;-62
2022/07/12 06:29:36;;;;;;;10.90;9.57;;;19.60;1.00;;;;;;5023211;28;20465;-63
2022/07/12 06:32:09;;;;;;;11.90;9.13;;;19.80;1.00;;;;;;5023857;28;20464;-63
2022/07/12 06:34:39;;;;;;;9.57;8.33;;;20.10;1.00;;;;;;5015074;28;20984;-62
2022/07/12 06:37:08;;;;;;;8.50;7.60;;;20.40;1.00;;;;;;5018526;28;20493;-63
2022/07/12 06:39:36;;;;;;;9.33;8.43;;;20.20;99.90;;;;;;5020356;28;20459;-63
2022/07/12 06:42:05;;;;;;;8.13;7.33;;;20.60;99.90;;;;;;5022994;28;20551;-63
2022/07/12 06:44:32;;;;;;;8.73;7.80;;;21.00;99.90;;;;;;5020632;28;20518;-63
2022/07/12 06:47:00;;;;;;;8.87;7.60;;;21.20;99.90;;;;;;5020178;28;20546;-63
2022/07/12 06:49:31;;;;;;;8.33;7.53;;;21.60;99.90;;;;;;5016101;28;20496;-63
2022/07/12 06:51:59;;;;;;;7.93;7.20;;;21.20;99.90;;;;;;5012378;28;20463;-63
2022/07/12 06:54:26;;;;;;;7.93;7.17;;;21.40;99.90;;;;;;5000457;28;20567;-63
2022/07/12 06:56:53;;;;;;;7.60;6.80;;;21.70;99.90;;;;;;5000839;28;20460;-63
2022/07/12 06:59:22;;;;;;;7.90;7.20;;;22.00;99.90;;;;;;5016699;28;20491;-63
2022/07/12 07:01:52;;;;;;;7.93;6.93;;;22.20;99.90;;;;;;5019454;28;20472;-63
2022/07/12 07:04:20;;;;;;;8.00;6.43;;;22.50;99.90;;;;;;5019324;28;20511;-63
2022/07/12 07:06:50;;;;;;;8.67;6.87;;;22.50;99.90;;;;;;5019442;28;20463;-62
2022/07/12 07:09:20;;;;;;;7.70;7.03;;;22.90;99.90;;;;;;5019153;28;20456;-62
2022/07/12 07:11:47;;;;;;;6.43;5.70;;;22.90;99.90;;;;;;5019716;28;20486;-63
2022/07/12 07:14:14;;;;;;;9.53;8.63;;;23.30;99.90;;;;;;5019836;28;20827;-63
2022/07/12 07:16:41;;;;;;;8.20;7.40;;;22.90;99.90;;;;;;5017732;28;20507;-63
2022/07/12 07:19:08;;;;;;;7.70;6.93;;;22.80;99.90;;;;;;5018465;28;20486;-63
2022/07/12 07:21:36;;;;;;;9.40;7.80;;;22.90;99.90;;;;;;5015207;28;20480;-63
2022/07/12 07:24:04;;;;;;;7.97;7.33;;;23.10;99.90;;;;;;5018329;28;20554;-63
2022/07/12 07:26:32;;;;;;;7.57;6.87;;;23.30;99.90;;;;;;5019841;28;20470;-63
2022/07/12 07:31:44;;;;;;;7.20;6.60;;;24.20;99.90;;;;;;5017007;28;20518;-63
2022/07/12 07:34:13;;;;;;;9.20;8.30;;;24.70;99.90;;;;;;5016044;28;20563;-64
2022/07/12 07:36:41;;;;;;;6.70;6.20;;;24.80;99.90;;;;;;5017869;28;20480;-63
2022/07/12 07:39:12;;;;;;;6.27;5.77;;;24.80;99.90;;;;;;5015624;28;20932;-64
2022/07/12 07:41:39;;;;;;;6.67;6.07;;;24.40;99.90;;;;;;5017461;28;20490;-64
2022/07/12 07:44:07;;;;;;;6.33;5.73;;;24.90;99.90;;;;;;5015293;28;20458;-64
2022/07/12 07:46:34;;;;;;;6.40;5.90;;;25.50;99.90;;;;;;5019511;28;20435;-63
2022/07/12 07:49:01;;;;;;;7.17;5.00;;;25.90;99.90;;;;;;5019242;28;20952;-63
2022/07/12 07:51:29;;;;;;;7.60;5.13;;;26.10;99.90;;;;;;5018444;28;20897;-63
2022/07/12 07:53:56;;;;;;;6.43;5.83;;;26.30;99.90;;;;;;5019274;28;20468;-63
2022/07/12 07:56:25;;;;;;;6.40;5.60;;;26.70;99.90;;;;;;5019067;28;20547;-63
2022/07/12 07:58:53;;;;;;;6.27;5.67;;;27.00;99.90;;;;;;5018930;28;21011;-64
2022/07/12 08:01:20;;;;;;;6.53;5.90;;;27.10;99.90;;;;;;5019094;28;20460;-63
2022/07/12 08:03:48;;;;;;;4.87;4.37;;;26.80;99.90;;;;;;5018924;28;20495;-63
2022/07/12 08:06:15;;;;;;;4.80;4.40;;;25.80;99.90;;;;;;5019139;28;20464;-63
2022/07/12 08:08:44;;;;;;;5.00;4.60;;;25.50;99.90;;;;;;5018979;28;20456;-63
2022/07/12 08:11:15;;;;;;;5.30;4.80;;;26.30;99.90;;;;;;5019407;28;20471;-63
2022/07/12 08:13:44;;;;;;;4.97;4.50;;;27.10;99.90;;;;;;5018958;28;20997;-63
2022/07/12 08:16:13;;;;;;;7.37;4.73;;;27.40;99.90;;;;;;5018676;28;20916;-63
2022/07/12 08:18:41;;;;;;;5.87;5.37;;;27.80;99.90;;;;;;5017784;28;20815;-63
2022/07/12 08:21:08;;;;;;;5.37;4.87;;;27.90;99.90;;;;;;5018344;28;20893;-63
2022/07/12 08:23:35;;;;;;;7.03;3.60;;;28.00;99.90;;;;;;5017367;28;20460;-64
2022/07/12 08:26:06;;;;;;;4.90;4.47;;;27.90;99.90;;;;;;5014593;28;20952;-63
2022/07/12 08:28:34;;;;;;;5.53;5.07;;;28.30;99.90;;;;;;5018501;28;20456;-63
2022/07/12 08:31:04;;;;;;;5.47;4.50;;;27.70;99.90;;;;;;5024602;28;20460;-63
2022/07/12 08:33:32;;;;;;;4.00;3.70;;;27.80;99.90;;;;;;5015834;28;20496;-63
2022/07/12 08:36:02;;;;;;;4.97;4.57;;;28.00;99.90;;;;;;5013186;28;20486;-63
2022/07/12 08:38:30;;;;;;;5.00;4.60;;;27.40;99.90;;;;;;5011633;28;20560;-63
2022/07/12 08:40:59;;;;;;;4.47;3.90;;;27.30;99.90;;;;;;5014286;28;20467;-63
2022/07/12 08:43:28;;;;;;;4.27;3.97;;;27.90;99.90;;;;;;5013217;28;20468;-63
2022/07/12 08:45:55;;;;;;;4.77;4.37;;;28.30;99.90;;;;;;5018807;28;20464;-63
2022/07/12 08:48:24;;;;;;;4.00;3.60;;;28.20;99.90;;;;;;5021081;28;20440;-63
2022/07/12 08:51:03;;;;;;;4.90;4.20;;;28.70;99.90;;;;;;5016595;28;20939;-63
2022/07/12 08:53:36;;;;;;;4.10;3.80;;;28.60;99.90;;;;;;5013193;28;20460;-63
2022/07/12 08:56:07;;;;;;;3.40;3.10;;;28.80;99.90;;;;;;5017018;28;20523;-64
2022/07/12 08:58:39;;;;;;;4.47;3.60;;;29.00;99.90;;;;;;5017243;28;20806;-63
2022/07/12 09:01:14;;;;;;;3.60;3.30;;;29.20;99.90;;;;;;5027022;28;20822;-63
2022/07/12 09:03:50;;;;;;;4.27;3.87;;;29.80;99.90;;;;;;5015442;28;20434;-64
2022/07/12 09:06:23;;;;;;;4.70;4.30;;;29.80;99.90;;;;;;5013545;28;20554;-62
2022/07/12 09:08:57;;;;;;;4.03;3.73;;;29.70;99.90;;;;;;5017291;28;20471;-63
2022/07/12 09:11:29;;;;;;;4.07;3.67;;;29.40;99.90;;;;;;5014081;28;20467;-63
2022/07/12 09:14:02;;;;;;;4.60;3.47;;;29.50;99.90;;;;;;5015691;28;20551;-63
2022/07/12 09:16:35;;;;;;;4.00;3.70;;;29.30;99.90;;;;;;5001639;28;20519;-63
2022/07/12 09:19:19;;;;;;;4.27;3.07;;;29.00;99.90;;;;;;5015248;28;21035;-63
2022/07/12 09:21:54;;;;;;;3.97;3.60;;;29.60;99.90;;;;;;5014642;28;20460;-63
2022/07/12 09:24:30;;;;;;;3.47;3.17;;;30.10;99.90;;;;;;5011562;28;20845;-63
2022/07/12 09:27:01;;;;;;;4.30;3.90;;;30.20;99.90;;;;;;5013308;28;20452;-63
2022/07/12 09:29:48;;;;;;;4.07;3.67;;;30.40;99.90;;;;;;5015228;28;20542;-63
2022/07/12 09:38:09;;;;;;;4.30;2.83;;;30.00;99.90;;;;;;5021090;28;20485;-63
2022/07/12 09:40:41;;;;;;;3.27;2.97;;;30.50;99.90;;;;;;5007746;28;20455;-63
2022/07/12 09:43:17;;;;;;;4.10;3.80;;;30.90;99.90;;;;;;5036414;28;20510;-63
2022/07/12 09:45:47;;;;;;;3.70;3.40;;;31.20;99.90;;;;;;5016427;28;20570;-63
2022/07/12 09:48:15;;;;;;;10.60;3.20;;;31.40;99.90;;;;;;5018572;28;20456;-63
2022/07/12 09:50:51;;;;;;;3.47;2.97;;;30.90;99.90;;;;;;5020705;28;20463;-63
2022/07/12 09:53:29;;;;;;;3.70;3.37;;;29.90;99.90;;;;;;5018178;28;20463;-63
2022/07/12 09:55:56;;;;;;;3.20;2.90;;;30.70;99.90;;;;;;5019058;28;20499;-63
2022/07/12 09:58:27;;;;;;;3.57;2.83;;;31.10;99.90;;;;;;5017265;28;20456;-63
2022/07/12 10:01:01;;;;;;;3.40;3.10;;;31.60;99.90;;;;;;5016030;28;20539;-63
2022/07/12 10:03:32;;;;;;;3.20;3.00;;;31.30;99.90;;;;;;5016118;28;20474;-63
2022/07/12 10:06:11;;;;;;;4.23;2.33;;;31.20;99.90;;;;;;5017281;28;20468;-63
2022/07/12 10:08:50;;;;;;;2.60;2.40;;;30.70;99.90;;;;;;5016575;28;20467;-63
2022/07/12 10:11:18;;;;;;;2.13;2.03;;;29.90;99.90;;;;;;5016545;28;20498;-63
2022/07/12 10:13:48;;;;;;;2.73;2.50;;;30.70;99.90;;;;;;5016325;28;20531;-63
2022/07/12 10:16:17;;;;;;;2.40;2.20;;;31.20;99.90;;;;;;5017136;28;20892;-63
2022/07/12 10:18:48;;;;;;;4.40;2.90;;;31.80;99.90;;;;;;5015391;28;20498;-63
2022/07/12 10:21:23;;;;;;;2.87;2.67;;;32.00;99.90;;;;;;5016028;28;20463;-64
2022/07/12 10:23:50;;;;;;;2.57;2.37;;;31.60;99.90;;;;;;5016627;28;20459;-63
2022/07/12 10:26:40;;;;;;;2.67;2.30;;;32.10;99.90;;;;;;5016286;28;20463;-63
2022/07/12 10:29:09;;;;;;;2.50;2.30;;;32.50;99.90;;;;;;5016555;28;20518;-63
2022/07/12 10:31:38;;;;;;;2.80;2.60;;;32.40;99.90;;;;;;5016550;28;20467;-63
2022/07/12 10:34:15;;;;;;;2.53;2.20;;;32.50;99.90;;;;;;5016564;28;20561;-64
2022/07/12 10:37:13;;;;;;;2.83;2.63;;;32.50;99.90;;;;;;5016830;28;20594;-63
2022/07/12 10:39:41;;;;;;;2.70;2.50;;;31.80;99.90;;;;;;4962329;28;20542;-63
2022/07/12 10:42:17;;;;;;;2.90;2.70;;;31.10;99.90;;;;;;5017130;28;20490;-64
2022/07/12 10:44:47;;;;;;;2.90;2.70;;;31.50;99.90;;;;;;5016840;28;20554;-63
2022/07/12 10:47:19;;;;;;;3.07;2.87;;;31.70;99.90;;;;;;5014200;28;20777;-64
2022/07/12 10:49:54;;;;;;;2.77;2.57;;;30.20;99.90;;;;;;5013673;28;20770;-64
2022/07/12 10:52:32;;;;;;;2.40;2.20;;;30.80;99.90;;;;;;5007121;28;20475;-64
2022/07/12 10:55:20;;;;;;;3.20;3.00;;;31.70;99.90;;;;;;5015365;28;20474;-63
2022/07/12 10:57:54;;;;;;;3.23;3.03;;;32.10;99.90;;;;;;5013868;28;20479;-64
2022/07/12 11:00:22;;;;;;;2.70;2.50;;;32.20;99.90;;;;;;5016906;28;20551;-64
2022/07/12 11:02:49;;;;;;;2.67;2.47;;;32.20;99.90;;;;;;5013303;28;20930;-64
2022/07/12 11:05:26;;;;;;;2.63;2.10;;;32.50;99.90;;;;;;5016367;28;20469;-64
2022/07/12 11:07:57;;;;;;;2.97;2.77;;;32.60;99.90;;;;;;5016021;28;20764;-63
2022/07/12 11:10:24;;;;;;;2.47;2.27;;;32.90;99.90;;;;;;5020692;28;20463;-64
2022/07/12 11:12:57;;;;;;;3.10;2.90;;;33.00;99.90;;;;;;5019851;28;20470;-64
2022/07/12 11:15:24;;;;;;;3.27;3.00;;;32.90;99.90;;;;;;5016891;28;20459;-63
2022/07/12 11:17:51;;;;;;;2.00;1.90;;;33.20;99.90;;;;;;5015436;28;20908;-64
2022/07/12 11:20:20;;;;;;;3.97;2.53;;;33.20;99.90;;;;;;5013861;28;20483;-63
2022/07/12 11:22:50;;;;;;;2.67;2.40;;;33.30;99.90;;;;;;5017351;28;20875;-63
2022/07/12 11:25:25;;;;;;;2.33;2.13;;;33.30;99.90;;;;;;5018970;28;20557;-64
2022/07/12 11:27:52;;;;;;;3.93;2.20;;;33.00;99.90;;;;;;5015898;28;20454;-64
2022/07/12 11:30:22;;;;;;;2.50;2.30;;;32.60;99.90;;;;;;5013457;28;20451;-63
2022/07/12 11:32:50;;;;;;;3.17;2.20;;;32.90;99.90;;;;;;5015865;28;20503;-64
2022/07/12 11:35:23;;;;;;;2.67;2.47;;;33.40;99.90;;;;;;5018268;28;20463;-64
2022/07/12 11:37:55;;;;;;;2.33;2.23;;;33.30;99.90;;;;;;5015854;28;20471;-64
2022/07/12 11:40:25;;;;;;;2.30;2.20;;;33.30;99.90;;;;;;4999523;28;20492;-63
2022/07/12 11:42:58;;;;;;;2.90;2.30;;;34.00;99.90;;;;;;4999339;28;20558;-64
2022/07/12 11:45:26;;;;;;;1.93;1.83;;;33.90;99.90;;;;;;5000576;28;20471;-64
2022/07/12 11:47:54;;;;;;;2.10;1.90;;;33.20;99.90;;;;;;5012387;28;20534;-64
2022/07/12 11:50:24;;;;;;;2.47;2.28;;;32.90;99.90;;;;;;5019684;28;20844;-64
2022/07/12 11:52:56;;;;;;;2.53;2.20;;;32.30;99.90;;;;;;5018282;28;20218;-64
2022/07/12 11:55:27;;;;;;;2.50;2.30;;;33.10;99.90;;;;;;5018364;28;20474;-63
2022/07/12 11:58:06;;;;;;;2.50;2.30;;;33.90;99.90;;;;;;5019821;28;20506;-64
2022/07/12 12:00:36;;;;;;;2.50;2.30;;;34.40;99.90;;;;;;5018339;28;20800;-63
2022/07/12 12:03:08;;;;;;;2.33;1.90;;;33.90;99.90;;;;;;5018841;28;20561;-63
2022/07/12 12:05:50;;;;;;;3.90;2.23;;;34.00;99.90;;;;;;5019635;28;20464;-63
2022/07/12 12:08:19;;;;;;;2.10;2.00;;;33.90;99.90;;;;;;5026893;28;20537;-64
2022/07/12 12:10:59;;;;;;;2.70;2.50;;;33.90;99.90;;;;;;5028062;28;20491;-63
2022/07/12 12:13:29;;;;;;;2.80;2.10;;;33.80;99.90;;;;;;5022439;28;20587;-64
2022/07/12 12:16:01;;;;;;;2.70;2.50;;;33.70;99.90;;;;;;5023728;28;20883;-64
2022/07/12 12:18:34;;;;;;;4.50;2.40;;;34.00;99.90;;;;;;5038558;28;20545;-64
2022/07/12 12:21:03;;;;;;;2.97;2.77;;;33.90;99.90;;;;;;5038711;28;20748;-64
2022/07/12 12:23:34;;;;;;;2.50;2.30;;;33.60;99.90;;;;;;5028919;28;20476;-64
2022/07/12 12:26:19;;;;;;;2.40;2.20;;;33.10;99.90;;;;;;4998495;28;20468;-64
2022/07/12 12:28:52;;;;;;;2.87;2.00;;;33.50;99.90;;;;;;4999073;28;20467;-64
2022/07/12 12:31:21;;;;;;;2.73;2.27;;;33.30;99.90;;;;;;5033737;28;20499;-63
2022/07/12 12:33:51;;;;;;;2.50;2.30;;;34.00;99.90;;;;;;5038463;28;20970;-63
2022/07/12 12:36:21;;;;;;;2.67;2.30;;;34.10;99.90;;;;;;5038254;28;20523;-64
2022/07/12 12:38:51;;;;;;;2.60;2.40;;;33.90;99.90;;;;;;5038577;28;20458;-63
2022/07/12 12:41:25;;;;;;;1.93;1.83;;;33.80;99.90;;;;;;5037960;28;20775;-63
2022/07/12 12:44:00;;;;;;;2.30;2.20;;;34.00;99.90;;;;;;5038676;28;20466;-64
2022/07/12 12:46:55;;;;;;;2.70;2.50;;;34.30;99.90;;;;;;4998691;28;20467;-64
2022/07/12 12:49:49;;;;;;;2.40;2.20;;;34.60;99.90;;;;;;5009397;28;20546;-63
2022/07/12 12:52:17;;;;;;;3.00;2.17;;;34.90;99.90;;;;;;5018763;28;20469;-63
2022/07/12 12:54:45;;;;;;;2.50;2.30;;;35.40;99.90;;;;;;5018223;28;20463;-63
2022/07/12 12:57:14;;;;;;;2.33;2.13;;;35.30;99.90;;;;;;5018372;28;20522;-63
2022/07/12 12:59:41;;;;;;;2.60;2.40;;;34.80;99.90;;;;;;5017875;28;20793;-63
2022/07/12 13:02:14;;;;;;;2.73;2.53;;;34.70;99.90;;;;;;5018347;28;20558;-63
2022/07/12 13:04:44;;;;;;;2.30;2.20;;;35.00;99.90;;;;;;5018479;28;20546;-64
2022/07/12 13:07:11;;;;;;;4.33;2.20;;;34.90;99.90;;;;;;5017890;28;20470;-63
2022/07/12 13:09:39;;;;;;;2.97;2.33;;;34.80;99.90;;;;;;5017947;28;20897;-64
2022/07/12 13:12:10;;;;;;;3.10;2.90;;;34.70;99.90;;;;;;5017827;28;20526;-64
2022/07/12 13:14:41;;;;;;;3.00;2.80;;;34.30;99.90;;;;;;5018146;28;20467;-63